createdAt,value
2023-02-02T00:00:08.929Z,6.1
2023-02-02T00:02:12.732Z,6.2
2023-02-02T00:06:20.343Z,6.1
2023-02-02T00:10:30.724Z,6.1
2023-02-02T00:12:34.520Z,6.1
2023-02-02T00:16:42.122Z,6.1
2023-02-02T00:18:45.908Z,6.1
2023-02-02T00:20:49.699Z,6.1
2023-02-02T00:22:53.504Z,6.1
2023-02-02T00:25:00.171Z,6.1
2023-02-02T00:27:03.912Z,6.2
2023-02-02T00:29:07.728Z,6.1
2023-02-02T00:40:32.862Z,6.2
2023-02-02T00:42:36.680Z,6.2
2023-02-02T00:44:40.475Z,6.1
2023-02-02T00:46:44.300Z,6.1
2023-02-02T00:48:48.075Z,6.1
2023-02-02T00:50:51.861Z,6.1
2023-02-02T00:52:58.497Z,6.1
2023-02-02T00:55:02.343Z,6.2
2023-02-02T00:57:06.111Z,6.2
2023-02-02T00:59:09.915Z,6.1
2023-02-02T01:01:13.763Z,6.1
2023-02-02T01:03:17.499Z,6.1
2023-02-02T01:05:21.663Z,6.1
2023-02-02T01:07:27.935Z,6.1
2023-02-02T01:09:31.786Z,6.1
2023-02-02T01:11:35.617Z,6.1
2023-02-02T01:13:39.429Z,6.1
2023-02-02T01:15:43.244Z,6.1
2023-02-02T01:17:47.040Z,6.1
2023-02-02T01:19:50.856Z,6
2023-02-02T01:21:57.433Z,6.1
2023-02-02T01:24:01.226Z,6
2023-02-02T01:26:05.049Z,6
2023-02-02T01:30:38.405Z,6
2023-02-02T01:32:42.183Z,6
2023-02-02T01:34:48.799Z,6
2023-02-02T01:36:52.598Z,6
2023-02-02T01:38:56.402Z,6
2023-02-02T01:41:00.242Z,6.1
2023-02-02T01:43:04.027Z,6
2023-02-02T01:45:07.839Z,6
2023-02-02T01:47:11.638Z,6
2023-02-02T01:49:18.795Z,6.1
2023-02-02T01:51:22.593Z,6
2023-02-02T01:53:26.402Z,6
2023-02-02T01:55:30.202Z,6
2023-02-02T01:57:33.984Z,6
2023-02-02T02:01:41.595Z,6
2023-02-02T02:03:48.234Z,6
2023-02-02T02:05:52.050Z,6
2023-02-02T02:07:55.827Z,6
2023-02-02T02:09:59.603Z,5.9
2023-02-02T02:16:11.034Z,5.9
2023-02-02T02:23:28.580Z,6
2023-02-02T02:25:32.357Z,6
2023-02-02T02:27:36.157Z,6
2023-02-02T02:29:39.972Z,6
2023-02-02T02:31:46.687Z,5.9
2023-02-02T02:33:50.395Z,5.9
2023-02-02T02:35:54.212Z,5.9
2023-02-02T02:37:58.124Z,5.9
2023-02-02T02:40:01.938Z,5.8
2023-02-02T02:42:05.737Z,5.8
2023-02-02T02:44:09.543Z,5.8
2023-02-02T02:46:17.698Z,5.8
2023-02-02T02:48:21.412Z,5.8
2023-02-02T02:50:25.247Z,5.7
2023-02-02T02:52:29.138Z,5.7
2023-02-02T02:54:32.935Z,5.7
2023-02-02T02:56:36.739Z,5.7
2023-02-02T02:58:40.556Z,5.7
2023-02-02T03:00:47.150Z,5.7
2023-02-02T03:02:50.983Z,5.7
2023-02-02T03:04:54.739Z,5.7
2023-02-02T03:06:58.518Z,5.7
2023-02-02T03:09:02.379Z,5.6
2023-02-02T03:11:06.125Z,5.7
2023-02-02T03:13:09.895Z,5.7
2023-02-02T03:15:16.474Z,5.7
2023-02-02T03:17:20.276Z,5.7
2023-02-02T03:19:24.095Z,5.8
2023-02-02T03:26:38.888Z,5.9
2023-02-02T03:32:52.992Z,6
2023-02-02T03:37:00.594Z,6
2023-02-02T03:39:04.379Z,6
2023-02-02T03:43:14.774Z,6.1
2023-02-02T03:45:18.582Z,6.1
2023-02-02T03:47:22.371Z,6.1
2023-02-02T03:49:26.192Z,6.2
2023-02-02T03:51:29.956Z,6.2
2023-02-02T03:53:33.828Z,6.2
2023-02-02T03:55:37.679Z,6.2
2023-02-02T03:57:44.275Z,6.2
2023-02-02T04:08:03.278Z,6.3
2023-02-02T04:12:13.718Z,6.3
2023-02-02T04:16:21.409Z,6.4
2023-02-02T04:17:24.664Z,6.3
2023-02-02T04:19:28.472Z,6.4
2023-02-02T04:21:32.267Z,6.4
2023-02-02T04:23:36.106Z,6.3
2023-02-02T04:25:42.711Z,6.4
2023-02-02T04:27:46.539Z,6.4
2023-02-02T04:29:50.355Z,6.4
2023-02-02T04:31:54.288Z,6.4
2023-02-02T04:33:57.994Z,6.5
2023-02-02T04:36:01.820Z,6.5
2023-02-02T04:38:05.658Z,6.5
2023-02-02T04:40:12.256Z,6.5
2023-02-02T04:44:19.911Z,6.5
2023-02-02T04:46:23.705Z,6.6
2023-02-02T04:50:31.367Z,6.6
2023-02-02T04:54:41.796Z,6.6
2023-02-02T04:56:45.629Z,6.6
2023-02-02T04:58:49.446Z,6.6
2023-02-02T05:00:53.281Z,6.6
2023-02-02T05:09:11.355Z,6.6
2023-02-02T05:11:15.194Z,6.6
2023-02-02T05:13:18.995Z,6.6
2023-02-02T05:17:52.366Z,6.6
2023-02-02T05:19:56.175Z,6.6
2023-02-02T05:22:02.834Z,6.6
2023-02-02T05:24:06.634Z,6.6
2023-02-02T05:26:10.442Z,6.6
2023-02-02T05:28:14.276Z,6.6
2023-02-02T05:30:18.103Z,6.7
2023-02-02T05:32:21.923Z,6.7
2023-02-02T05:34:25.750Z,6.7
2023-02-02T05:36:32.365Z,6.7
2023-02-02T05:38:36.190Z,6.7
2023-02-02T05:40:40.008Z,6.6
2023-02-02T05:42:43.811Z,6.7
2023-02-02T05:44:47.671Z,6.7
2023-02-02T05:46:51.494Z,6.7
2023-02-02T05:48:55.290Z,6.7
2023-02-02T05:51:01.950Z,6.7
2023-02-02T05:53:05.769Z,6.7
2023-02-02T05:55:09.572Z,6.7
2023-02-02T05:57:13.410Z,6.7
2023-02-02T05:59:17.218Z,6.7
2023-02-02T06:01:21.051Z,6.7
2023-02-02T06:03:25.037Z,6.8
2023-02-02T06:05:31.518Z,6.8
2023-02-02T06:07:35.333Z,6.8
2023-02-02T06:09:39.150Z,6.8
2023-02-02T06:10:42.452Z,6.8
2023-02-02T06:14:50.151Z,6.8
2023-02-02T06:16:53.943Z,6.8
2023-02-02T06:19:00.607Z,6.8
2023-02-02T06:23:08.247Z,6.8
2023-02-02T06:25:12.077Z,6.8
2023-02-02T06:31:23.672Z,6.8
2023-02-02T06:33:30.226Z,6.8
2023-02-02T06:35:34.050Z,6.8
2023-02-02T06:37:37.886Z,6.8
2023-02-02T06:39:41.696Z,6.8
2023-02-02T06:41:45.525Z,6.8
2023-02-02T06:43:49.343Z,6.8
2023-02-02T06:45:53.223Z,6.8
2023-02-02T06:47:59.826Z,6.8
2023-02-02T06:50:03.636Z,6.8
2023-02-02T06:54:11.263Z,6.8
2023-02-02T06:58:18.928Z,6.8
2023-02-02T07:00:22.746Z,6.8
2023-02-02T07:04:33.196Z,6.8
2023-02-02T07:06:37.049Z,6.8
2023-02-02T07:07:40.344Z,6.8
2023-02-02T07:09:44.157Z,6.8
2023-02-02T07:11:48.010Z,6.8
2023-02-02T07:13:51.816Z,6.8
2023-02-02T07:15:58.539Z,6.8
2023-02-02T07:18:02.325Z,6.8
2023-02-02T07:20:06.116Z,6.8
2023-02-02T07:22:09.936Z,6.8
2023-02-02T07:24:13.771Z,6.8
2023-02-02T07:26:17.664Z,6.8
2023-02-02T07:28:21.432Z,6.8
2023-02-02T07:30:28.194Z,6.8
2023-02-02T07:32:31.918Z,6.8
2023-02-02T07:34:35.749Z,6.8
2023-02-02T07:36:39.565Z,6.8
2023-02-02T07:38:43.510Z,6.8
2023-02-02T07:40:47.229Z,6.9
2023-02-02T07:42:51.106Z,6.9
2023-02-02T07:47:01.565Z,6.9
2023-02-02T07:49:05.381Z,6.9
2023-02-02T07:51:09.201Z,6.9
2023-02-02T07:53:13.018Z,6.9
2023-02-02T07:55:16.859Z,6.9
2023-02-02T07:57:20.718Z,6.9
2023-02-02T07:59:27.385Z,6.9
2023-02-02T08:01:31.215Z,6.9
2023-02-02T08:03:35.011Z,6.9
2023-02-02T08:06:42.168Z,6.9
2023-02-02T08:10:49.824Z,6.9
2023-02-02T08:12:56.465Z,6.9
2023-02-02T08:15:00.354Z,6.9
2023-02-02T08:17:04.119Z,6.9
2023-02-02T08:19:07.914Z,6.9
2023-02-02T08:21:11.756Z,6.9
2023-02-02T08:23:15.592Z,6.9
2023-02-02T08:25:19.446Z,6.9
2023-02-02T08:27:26.089Z,6.9
2023-02-02T08:29:29.913Z,6.9
2023-02-02T08:35:41.391Z,6.9
2023-02-02T08:37:45.188Z,6.9
2023-02-02T08:44:01.075Z,7
2023-02-02T08:46:12.912Z,7
2023-02-02T08:48:12.172Z,7
2023-02-02T08:50:12.498Z,7
2023-02-02T08:52:16.316Z,7
2023-02-02T08:54:20.159Z,7
2023-02-02T08:56:26.790Z,6.9
2023-02-02T08:58:30.616Z,7
2023-02-02T09:00:34.442Z,7
2023-02-02T09:07:11.668Z,7
2023-02-02T09:09:18.301Z,7
2023-02-02T09:11:22.144Z,7
2023-02-02T09:13:25.951Z,7
2023-02-02T09:15:29.792Z,7.1
2023-02-02T09:17:33.636Z,7.1
2023-02-02T09:21:41.268Z,7.1
2023-02-02T09:23:47.992Z,7.1
2023-02-02T09:32:03.358Z,7.1
2023-02-02T09:36:10.962Z,7.1
2023-02-02T09:40:21.456Z,7.1
2023-02-02T09:42:25.248Z,7.1
2023-02-02T09:46:32.936Z,7.1
2023-02-02T09:50:40.582Z,7.1
2023-02-02T09:54:51.028Z,7.1
2023-02-02T09:56:54.888Z,7.2
2023-02-02T09:57:58.256Z,7.2
2023-02-02T10:00:02.056Z,7.2
2023-02-02T10:06:16.340Z,7.3
2023-02-02T10:08:33.616Z,7.3
2023-02-02T10:16:35.561Z,7.3
2023-02-02T10:20:46.071Z,7.4
2023-02-02T10:22:49.867Z,7.4
2023-02-02T10:24:54.235Z,7.4
2023-02-02T10:29:01.918Z,7.4
2023-02-02T10:35:16.233Z,7.3
2023-02-02T10:37:20.064Z,7.3
2023-02-02T10:39:23.896Z,7.3
2023-02-02T10:41:27.737Z,7.3
2023-02-02T10:43:31.548Z,7.3
2023-02-02T10:45:35.396Z,7.4
2023-02-02T10:47:39.230Z,7.3
2023-02-02T10:49:45.868Z,7.3
2023-02-02T10:51:49.687Z,7.4
2023-02-02T10:53:53.547Z,7.4
2023-02-02T10:59:04.591Z,7.4
2023-02-02T11:01:08.426Z,7.4
2023-02-02T11:03:15.011Z,7.4
2023-02-02T11:05:18.871Z,7.4
2023-02-02T11:11:30.365Z,7.4
2023-02-02T11:15:38.991Z,7.5
2023-02-02T11:26:00.981Z,7.5
2023-02-02T11:36:22.951Z,7.5
2023-02-02T11:40:30.654Z,7.5
2023-02-02T11:42:34.503Z,7.4
2023-02-02T11:46:44.962Z,7.3
2023-02-02T11:48:48.771Z,7.4
2023-02-02T11:50:52.680Z,7.4
2023-02-02T11:53:59.768Z,7.4
2023-02-02T11:56:03.616Z,7.4
2023-02-02T11:58:07.460Z,7.4
2023-02-02T12:00:14.130Z,7.4
2023-02-02T12:02:18.007Z,7.4
2023-02-02T12:04:21.850Z,7.4
2023-02-02T12:06:25.618Z,7.4
2023-02-02T12:08:29.462Z,7.4
2023-02-02T12:10:36.331Z,7.4
2023-02-02T12:12:37.103Z,7.4
2023-02-02T12:14:44.111Z,7.5
2023-02-02T12:16:47.618Z,7.5
2023-02-02T12:18:51.468Z,7.5
2023-02-02T12:20:55.286Z,7.5
2023-02-02T12:22:59.141Z,7.6
2023-02-02T12:25:03.114Z,7.6
2023-02-02T12:27:06.833Z,7.6
2023-02-02T12:29:13.482Z,7.6
2023-02-02T12:31:17.412Z,7.6
2023-02-02T12:33:21.184Z,7.6
2023-02-02T12:35:25.033Z,7.6
2023-02-02T12:37:28.898Z,7.6
2023-02-02T12:39:32.749Z,7.5
2023-02-02T12:41:36.598Z,7.6
2023-02-02T12:43:43.242Z,7.6
2023-02-02T12:45:47.129Z,7.6
2023-02-02T12:47:50.964Z,7.6
2023-02-02T12:50:20.503Z,7.7
2023-02-02T12:52:24.357Z,7.7
2023-02-02T12:56:34.866Z,7.6
2023-02-02T12:58:38.767Z,7.6
2023-02-02T13:00:42.673Z,7.6
2023-02-02T13:02:46.403Z,7.6
2023-02-02T13:04:50.243Z,7.6
2023-02-02T13:06:54.100Z,7.5
2023-02-02T13:08:57.936Z,7.6
2023-02-02T13:11:04.643Z,7.6
2023-02-02T13:13:08.469Z,7.6
2023-02-02T13:15:12.308Z,7.6
2023-02-02T13:17:16.210Z,7.5
2023-02-02T13:19:20.042Z,7.5
2023-02-02T13:21:23.853Z,7.5
2023-02-02T13:23:27.692Z,7.5
2023-02-02T13:25:34.376Z,7.5
2023-02-02T13:27:38.231Z,7.5
2023-02-02T13:29:47.235Z,7.5
2023-02-02T13:31:46.062Z,7.5
2023-02-02T13:33:49.775Z,7.4
2023-02-02T13:35:53.601Z,7.4
2023-02-02T13:37:57.444Z,7.5
2023-02-02T13:40:04.104Z,7.5
2023-02-02T13:42:07.955Z,7.5
2023-02-02T13:44:11.797Z,7.4
2023-02-02T13:45:15.120Z,7.4
2023-02-02T13:53:33.306Z,7.4
2023-02-02T13:55:37.150Z,7.4
2023-02-02T13:57:41.006Z,7.4
2023-02-02T13:59:44.839Z,7.4
2023-02-02T14:01:48.830Z,7.4
2023-02-02T14:05:56.386Z,7.4
2023-02-02T14:08:03.046Z,7.4
2023-02-02T14:10:06.951Z,7.4
2023-02-02T14:12:10.887Z,7.4
2023-02-02T14:14:14.557Z,7.4
2023-02-02T14:18:22.216Z,7.4
2023-02-02T14:22:32.736Z,7.4
2023-02-02T14:24:36.585Z,7.4
2023-02-02T14:26:40.525Z,7.4
2023-02-02T14:28:44.243Z,7.4
2023-02-02T14:30:48.116Z,7.4
2023-02-02T14:32:51.919Z,7.4
2023-02-02T14:34:55.760Z,7.3
2023-02-02T14:37:02.390Z,7.3
2023-02-02T14:39:06.238Z,7.3
2023-02-02T14:41:11.575Z,7.3
2023-02-02T14:50:33.038Z,7.3
2023-02-02T14:52:36.903Z,7.3
2023-02-02T14:54:40.743Z,7.3
2023-02-02T14:58:48.485Z,7.3
2023-02-02T15:00:52.229Z,7.3
2023-02-02T15:02:56.180Z,7.3
2023-02-02T15:05:02.750Z,7.3
2023-02-02T15:07:06.598Z,7.3
2023-02-02T15:09:10.453Z,7.3
2023-02-02T15:11:14.254Z,7.3
2023-02-02T15:13:18.139Z,7.3
2023-02-02T15:15:21.955Z,7.3
2023-02-02T15:17:25.808Z,7.3
2023-02-02T15:19:32.485Z,7.4
2023-02-02T15:21:36.328Z,7.4
2023-02-02T15:23:40.158Z,7.4
2023-02-02T15:25:44.005Z,7.4
2023-02-02T15:27:56.191Z,7.4
2023-02-02T15:29:51.699Z,7.4
2023-02-02T15:31:55.651Z,7.4
2023-02-02T15:34:02.214Z,7.4
2023-02-02T15:36:06.051Z,7.4
2023-02-02T15:38:09.904Z,7.4
2023-02-02T15:39:13.224Z,7.4
2023-02-02T15:41:17.061Z,7.4
2023-02-02T15:43:20.925Z,7.4
2023-02-02T15:45:24.761Z,7.4
2023-02-02T15:47:31.428Z,7.4
2023-02-02T15:49:35.989Z,7.4
2023-02-02T15:51:39.076Z,7.4
2023-02-02T15:53:42.943Z,7.4
2023-02-02T15:55:46.748Z,7.4
2023-02-02T15:57:52.098Z,7.4
2023-02-02T15:59:54.464Z,7.4
2023-02-02T16:02:01.127Z,7.4
2023-02-02T16:04:06.692Z,7.4
2023-02-02T16:06:08.798Z,7.4
2023-02-02T16:08:12.596Z,7.4
2023-02-02T16:10:16.431Z,7.4
2023-02-02T16:12:20.263Z,7.4
2023-02-02T16:14:24.095Z,7.3
2023-02-02T16:16:30.799Z,7.4
2023-02-02T16:18:34.598Z,7.4
2023-02-02T16:22:42.255Z,7.4
2023-02-02T16:24:46.076Z,7.4
2023-02-02T16:26:49.979Z,7.3
2023-02-02T16:28:53.748Z,7.4
2023-02-02T16:33:04.222Z,7.4
2023-02-02T16:35:08.061Z,7.4
2023-02-02T16:37:37.648Z,7.4
2023-02-02T16:39:41.462Z,7.4
2023-02-02T16:41:45.341Z,7.4
2023-02-02T16:43:51.952Z,7.3
2023-02-02T16:45:55.845Z,7.4
2023-02-02T16:47:59.607Z,7.4
2023-02-02T16:50:03.445Z,7.4
2023-02-02T16:52:07.272Z,7.4
2023-02-02T16:54:11.112Z,7.4
2023-02-02T16:56:14.935Z,7.4
2023-02-02T16:58:21.704Z,7.4
2023-02-02T17:00:25.434Z,7.4
2023-02-02T17:02:29.353Z,7.4
2023-02-02T17:04:33.128Z,7.4
2023-02-02T17:06:50.424Z,7.5
2023-02-02T17:08:40.802Z,7.4
2023-02-02T17:10:44.654Z,7.4
2023-02-02T17:12:51.328Z,7.4
2023-02-02T17:14:55.144Z,7.4
2023-02-02T17:19:02.992Z,7.4
2023-02-02T17:23:10.540Z,7.4
2023-02-02T17:25:14.408Z,7.4
2023-02-02T17:27:21.051Z,7.5
2023-02-02T17:29:24.898Z,7.5
2023-02-02T17:31:28.844Z,7.4
2023-02-02T17:32:32.073Z,7.4
2023-02-02T17:34:35.922Z,7.5
2023-02-02T17:36:39.769Z,7.4
2023-02-02T17:42:54.326Z,7.5
2023-02-02T17:44:58.088Z,7.5
2023-02-02T17:47:01.898Z,7.4
2023-02-02T17:49:05.744Z,7.5
2023-02-02T17:51:09.575Z,7.4
2023-02-02T17:53:13.588Z,7.4
2023-02-02T17:55:20.089Z,7.4
2023-02-02T17:57:23.944Z,7.4
2023-02-02T18:01:31.677Z,7.4
2023-02-02T18:16:01.407Z,7.4
2023-02-02T18:22:12.858Z,7.4
2023-02-02T18:24:19.513Z,7.4
2023-02-02T18:26:23.397Z,7.4
2023-02-02T18:28:27.168Z,7.4
2023-02-02T18:29:30.486Z,7.4
2023-02-02T18:35:41.993Z,7.4
2023-02-02T18:37:48.636Z,7.4
2023-02-02T18:39:52.477Z,7.4
2023-02-02T18:44:00.177Z,7.3
2023-02-02T18:46:04.027Z,7.4
2023-02-02T18:48:07.812Z,7.4
2023-02-02T18:50:11.646Z,7.3
2023-02-02T18:54:22.151Z,7.3
2023-02-02T18:56:25.970Z,7.3
2023-02-02T19:00:33.643Z,7.3
2023-02-02T19:02:37.480Z,7.3
2023-02-02T19:04:41.453Z,7.4
2023-02-02T19:06:47.952Z,7.3
2023-02-02T19:08:51.782Z,7.4
2023-02-02T19:10:55.621Z,7.4
2023-02-02T19:12:59.474Z,7.4
2023-02-02T19:19:10.976Z,7.4
2023-02-02T19:21:17.640Z,7.3
2023-02-02T19:23:21.464Z,7.3
2023-02-02T19:25:25.861Z,7.3
2023-02-02T19:26:28.683Z,7.3
2023-02-02T19:28:32.489Z,7.4
2023-02-02T19:30:36.345Z,7.3
2023-02-02T19:34:46.806Z,7.4
2023-02-02T19:36:50.641Z,7.4
2023-02-02T19:38:54.479Z,7.3
2023-02-02T19:40:58.301Z,7.4
2023-02-02T19:43:02.135Z,7.4
2023-02-02T19:45:05.980Z,7.4
2023-02-02T19:53:24.143Z,7.3
2023-02-02T19:57:31.821Z,7.4
2023-02-02T19:59:35.655Z,7.4
2023-02-02T20:01:39.489Z,7.4
2023-02-02T20:03:46.144Z,7.4
2023-02-02T20:05:50.152Z,7.3
2023-02-02T20:07:53.988Z,7.4
2023-02-02T20:09:57.839Z,7.3
2023-02-02T20:12:01.678Z,7.4
2023-02-02T20:14:05.516Z,7.3
2023-02-02T20:16:09.376Z,7.4
2023-02-02T20:18:16.000Z,7.3
2023-02-02T20:22:23.669Z,7.3
2023-02-02T20:24:53.287Z,7.3
2023-02-02T20:26:57.181Z,7.4
2023-02-02T20:29:00.980Z,7.4
2023-02-02T20:33:11.477Z,7.4
2023-02-02T20:35:15.275Z,7.4
2023-02-02T20:37:20.604Z,7.4
2023-02-02T20:39:24.401Z,7.3
2023-02-02T20:41:28.238Z,7.3
2023-02-02T20:43:32.078Z,7.3
2023-02-02T20:45:38.763Z,7.3
2023-02-02T20:47:42.570Z,7.3
2023-02-02T20:49:46.394Z,7.3
2023-02-02T20:51:50.213Z,7.3
2023-02-02T20:53:54.075Z,7.3
2023-02-02T20:55:57.912Z,7.3
2023-02-02T20:58:01.722Z,7.3
2023-02-02T21:02:12.234Z,7.3
2023-02-02T21:04:16.037Z,7.3
2023-02-02T21:06:19.859Z,7.3
2023-02-02T21:08:23.698Z,7.3
2023-02-02T21:10:27.858Z,7.3
2023-02-02T21:12:31.366Z,7.3
2023-02-02T21:14:38.011Z,7.3
2023-02-02T21:16:41.868Z,7.3
2023-02-02T21:18:47.369Z,7.2
2023-02-02T21:21:52.855Z,7.2
2023-02-02T21:28:07.273Z,7.3
2023-02-02T21:30:11.035Z,7.3
2023-02-02T21:32:14.878Z,7.3
2023-02-02T21:34:18.748Z,7.3
2023-02-02T21:36:22.556Z,7.3
2023-02-02T21:38:26.397Z,7.3
2023-02-02T21:40:30.239Z,7.4
2023-02-02T21:42:36.857Z,7.4
2023-02-02T21:44:40.689Z,7.4
2023-02-02T21:46:44.530Z,7.4
2023-02-02T21:48:48.357Z,7.3
2023-02-02T21:50:52.205Z,7.4
2023-02-02T21:52:56.087Z,7.4
2023-02-02T21:54:59.899Z,7.4
2023-02-02T21:57:06.536Z,7.4
2023-02-02T21:59:10.381Z,7.4
2023-02-02T22:01:14.280Z,7.4
2023-02-02T22:03:18.065Z,7.4
2023-02-02T22:05:21.887Z,7.4
2023-02-02T22:07:25.747Z,7.4
2023-02-02T22:09:29.560Z,7.5
2023-02-02T22:16:47.223Z,7.5
2023-02-02T22:18:51.076Z,7.5
2023-02-02T22:20:54.935Z,7.5
2023-02-02T22:22:58.799Z,7.6
2023-02-02T22:25:05.421Z,7.6
2023-02-02T22:27:09.258Z,7.5
2023-02-02T22:29:13.117Z,7.6
2023-02-02T22:31:17.038Z,7.6
2023-02-02T22:33:20.780Z,7.6
2023-02-02T22:39:35.145Z,7.7
2023-02-02T22:41:38.975Z,7.7
2023-02-02T22:43:42.856Z,7.7
2023-02-02T22:54:04.856Z,7.7
2023-02-02T22:56:08.724Z,7.7
2023-02-02T22:58:12.588Z,7.7
2023-02-02T23:00:16.477Z,7.7
2023-02-02T23:02:20.289Z,7.7
2023-02-02T23:04:24.094Z,7.6
2023-02-02T23:06:27.916Z,7.6
2023-02-02T23:08:34.645Z,7.6
2023-02-02T23:10:38.428Z,7.6
2023-02-02T23:12:42.279Z,7.6
2023-02-02T23:17:53.284Z,7.6
2023-02-02T23:22:03.784Z,7.6
2023-02-02T23:24:07.617Z,7.6
2023-02-02T23:26:11.451Z,7.6
2023-02-02T23:28:15.325Z,7.6
2023-02-02T23:30:19.128Z,7.7
2023-02-02T23:32:22.984Z,7.6
2023-02-02T23:34:26.808Z,7.6
2023-02-02T23:36:33.479Z,7.6
2023-02-02T23:38:37.295Z,7.6
2023-02-02T23:40:41.139Z,7.6
2023-02-02T23:42:44.969Z,7.7
2023-02-02T23:44:48.804Z,7.7
2023-02-02T23:46:52.720Z,7.6
2023-02-02T23:48:56.505Z,7.7
2023-02-02T23:51:03.150Z,7.7
2023-02-02T23:53:07.006Z,7.7
2023-02-02T23:55:10.837Z,7.7
2023-02-02T23:57:14.676Z,7.7
2023-02-02T23:59:18.509Z,7.7
